Terminal Aerodrome Forecast
Issued by NWS Blacksburg, VA

Home | Current Version | Previous Version | Text Only | Print | Product List | Glossary On
Versions: 1 2 3 4 5 6 7 8 9 10 11 12 13 14 15 16
000
FTUS41 KRNK 231348 AAA
TAFBLF
TAF AMD
KBLF 231348Z 2314/2412 14009G19KT 5SM -RA BR BKN007 OVC012
      WS020/16035KT
      TEMPO 2314/2318 1 1/2SM RA BR SCT007 OVC012
     FM231800 14013KT 2SM RA BR SCT012 OVC020 WS020/15040KT
     FM240000 17011KT 1SM +SHRA OVC040 WS020/24035KT
     FM240200 21009KT 3SM SHRA OVC050
     FM240400 24009KT P6SM SCT015 BKN050
     FM240900 23006KT P6SM BKN010=

USA.gov is the U.S. government's official web portal to all federal, state and local government web resources and services.